createdAt,value
2018-11-27T00:00:17.532Z,0.00
2018-11-27T00:01:17.476Z,0.00
2018-11-27T00:02:17.460Z,0.00
2018-11-27T00:03:17.456Z,0.00
2018-11-27T00:04:17.474Z,0.00
2018-11-27T00:05:17.467Z,0.00
2018-11-27T00:06:17.436Z,0.00
2018-11-27T00:07:17.459Z,0.00
2018-11-27T00:08:17.400Z,0.00
2018-11-27T00:09:17.388Z,0.00
2018-11-27T00:10:17.378Z,0.00
2018-11-27T00:11:17.392Z,0.00
2018-11-27T00:12:17.422Z,0.00
2018-11-27T00:13:17.376Z,0.00
2018-11-27T00:14:17.334Z,0.00
2018-11-27T00:15:17.330Z,0.00
2018-11-27T00:16:17.315Z,0.00
2018-11-27T00:17:17.574Z,0.00
2018-11-27T00:18:17.285Z,0.00
2018-11-27T00:19:17.312Z,0.00
2018-11-27T00:20:17.266Z,0.00
2018-11-27T00:21:17.249Z,0.00
2018-11-27T00:22:17.288Z,0.00
2018-11-27T00:23:17.255Z,0.00
2018-11-27T00:24:17.251Z,0.00
2018-11-27T00:25:17.210Z,0.00
2018-11-27T00:26:17.217Z,0.00
2018-11-27T00:27:17.214Z,0.00
2018-11-27T00:28:17.176Z,0.00
2018-11-27T00:29:17.173Z,0.00
2018-11-27T00:30:17.219Z,0.00
2018-11-27T00:31:17.191Z,0.00
2018-11-27T00:32:17.164Z,0.00
2018-11-27T00:33:17.151Z,0.00
2018-11-27T00:34:17.131Z,0.00
2018-11-27T00:35:17.121Z,0.00
2018-11-27T00:36:17.165Z,0.00
2018-11-27T00:37:17.077Z,0.00
2018-11-27T00:38:17.073Z,0.00
2018-11-27T00:39:17.053Z,0.00
2018-11-27T00:40:17.062Z,0.00
2018-11-27T00:41:17.041Z,0.00
2018-11-27T00:42:17.028Z,0.00
2018-11-27T00:43:17.038Z,0.00
2018-11-27T00:44:16.999Z,0.00
2018-11-27T00:45:17.013Z,0.00
2018-11-27T00:46:16.998Z,0.00
2018-11-27T00:47:16.973Z,0.00
2018-11-27T00:48:16.966Z,0.00
2018-11-27T00:49:16.971Z,0.00
2018-11-27T00:50:16.935Z,0.00
2018-11-27T00:51:16.973Z,0.00
2018-11-27T00:52:16.909Z,0.00
2018-11-27T00:53:16.920Z,0.00
2018-11-27T00:54:16.891Z,0.00
2018-11-27T00:55:16.884Z,0.00
2018-11-27T00:56:16.902Z,0.00
2018-11-27T00:57:16.857Z,0.00
2018-11-27T00:58:16.854Z,0.00
2018-11-27T00:59:16.841Z,0.00
2018-11-27T01:00:16.824Z,0.00
2018-11-27T01:01:16.820Z,0.00
2018-11-27T01:02:16.859Z,0.00
2018-11-27T01:03:16.819Z,0.00
2018-11-27T01:04:16.811Z,0.00
2018-11-27T01:05:16.802Z,0.00
2018-11-27T01:06:16.804Z,0.00
2018-11-27T01:07:16.751Z,0.00
2018-11-27T01:08:16.764Z,0.00
2018-11-27T01:09:16.726Z,0.00
2018-11-27T01:10:16.739Z,0.00
2018-11-27T01:11:16.716Z,0.00
2018-11-27T01:12:16.700Z,0.00
2018-11-27T01:13:16.704Z,0.00
2018-11-27T01:14:16.671Z,0.00
2018-11-27T01:15:16.660Z,0.00
2018-11-27T01:16:16.694Z,0.00
2018-11-27T01:17:16.671Z,0.00
2018-11-27T01:18:16.675Z,0.00
2018-11-27T01:19:16.622Z,0.00
2018-11-27T01:20:16.637Z,0.00
2018-11-27T01:21:16.620Z,0.00
2018-11-27T01:22:16.613Z,0.00
2018-11-27T01:23:16.632Z,0.00
2018-11-27T01:24:16.590Z,0.00
2018-11-27T01:25:16.567Z,0.00
2018-11-27T01:26:16.590Z,0.00
2018-11-27T01:27:16.528Z,0.00
2018-11-27T01:28:16.517Z,0.00
2018-11-27T01:29:16.514Z,0.00
2018-11-27T01:30:16.502Z,0.00
2018-11-27T01:31:16.492Z,0.00
2018-11-27T01:32:16.494Z,0.00
2018-11-27T01:33:16.489Z,0.00
2018-11-27T01:34:16.476Z,0.00
2018-11-27T01:35:16.440Z,0.00
2018-11-27T01:36:16.505Z,0.00
2018-11-27T01:37:16.458Z,0.00
2018-11-27T01:38:16.409Z,0.00
2018-11-27T01:39:16.420Z,0.00
2018-11-27T01:40:16.388Z,0.00
2018-11-27T01:41:16.381Z,0.00
2018-11-27T01:42:16.368Z,0.00
2018-11-27T01:43:16.355Z,0.00
2018-11-27T01:44:16.357Z,0.00
2018-11-27T01:45:16.574Z,0.00
2018-11-27T01:46:16.319Z,0.00
2018-11-27T01:47:16.317Z,0.00
2018-11-27T01:48:16.302Z,0.00
2018-11-27T01:49:16.316Z,0.00
2018-11-27T01:50:16.283Z,0.00
2018-11-27T01:51:16.278Z,0.00
2018-11-27T01:52:16.265Z,0.00
2018-11-27T01:53:16.249Z,0.00
2018-11-27T01:54:16.258Z,0.00
2018-11-27T01:55:16.233Z,0.00
2018-11-27T01:56:16.229Z,0.00
2018-11-27T01:57:16.216Z,0.00
2018-11-27T01:58:16.193Z,0.00
2018-11-27T01:59:16.184Z,0.00
2018-11-27T02:00:16.481Z,0.00
2018-11-27T02:01:16.187Z,0.00
2018-11-27T02:02:16.170Z,0.00
2018-11-27T02:03:16.147Z,0.00
2018-11-27T02:04:16.132Z,0.00
2018-11-27T02:05:16.124Z,0.00
2018-11-27T02:06:16.150Z,0.00
2018-11-27T02:07:16.096Z,0.00
2018-11-27T02:08:16.117Z,0.00
2018-11-27T02:09:16.074Z,0.00
2018-11-27T02:10:16.114Z,0.00
2018-11-27T02:11:16.074Z,0.00
2018-11-27T02:12:16.040Z,0.00
2018-11-27T02:13:16.035Z,0.00
2018-11-27T02:14:16.022Z,0.00
2018-11-27T02:15:16.059Z,0.00
2018-11-27T02:16:16.029Z,0.00
2018-11-27T02:17:15.987Z,0.00
2018-11-27T02:18:15.999Z,0.00
2018-11-27T02:19:15.966Z,0.00
2018-11-27T02:20:15.957Z,0.00
2018-11-27T02:21:16.020Z,0.00
2018-11-27T02:22:15.969Z,0.00
2018-11-27T02:23:15.941Z,0.00
2018-11-27T02:24:15.912Z,0.00
2018-11-27T02:25:15.933Z,0.00
2018-11-27T02:26:15.911Z,0.00
2018-11-27T02:27:15.894Z,0.00
2018-11-27T02:28:15.865Z,0.00
2018-11-27T02:29:15.880Z,0.00
2018-11-27T02:30:15.862Z,0.00
2018-11-27T02:31:15.862Z,0.00
2018-11-27T02:32:15.824Z,0.00
2018-11-27T02:33:15.843Z,0.00
2018-11-27T02:34:15.828Z,0.00
2018-11-27T02:35:15.791Z,0.00
2018-11-27T02:36:15.808Z,0.00
2018-11-27T02:37:15.777Z,0.00
2018-11-27T02:38:15.785Z,0.00
2018-11-27T02:39:15.748Z,0.00
2018-11-27T02:40:15.746Z,0.00
2018-11-27T02:41:15.726Z,0.00
2018-11-27T02:42:15.762Z,0.00
2018-11-27T02:43:16.040Z,0.00
2018-11-27T02:44:15.700Z,0.00
2018-11-27T02:45:15.700Z,0.00
2018-11-27T02:46:15.683Z,0.00
2018-11-27T02:47:15.686Z,0.00
2018-11-27T02:48:15.647Z,0.00
2018-11-27T02:49:15.687Z,0.00
2018-11-27T02:50:15.662Z,0.00
2018-11-27T02:51:15.613Z,0.00
2018-11-27T02:52:15.631Z,0.00
2018-11-27T02:53:15.638Z,0.00
2018-11-27T02:54:15.585Z,0.00
2018-11-27T02:55:15.596Z,0.00
2018-11-27T02:56:15.603Z,0.00
2018-11-27T02:57:15.552Z,0.00
2018-11-27T02:58:15.599Z,0.00
2018-11-27T02:59:15.530Z,0.00
2018-11-27T03:00:15.520Z,0.00
2018-11-27T03:01:15.536Z,0.00
2018-11-27T03:02:15.580Z,0.00
2018-11-27T03:03:15.537Z,0.00
2018-11-27T03:04:15.510Z,0.00
2018-11-27T03:05:15.526Z,0.00
2018-11-27T03:06:15.485Z,0.00
2018-11-27T03:07:15.534Z,0.00
2018-11-27T03:08:15.464Z,0.00
2018-11-27T03:09:15.425Z,0.00
2018-11-27T03:10:15.447Z,0.00
2018-11-27T03:11:15.427Z,0.00
2018-11-27T03:12:15.392Z,0.00
2018-11-27T03:13:15.457Z,0.00
2018-11-27T03:14:15.378Z,0.00
2018-11-27T03:15:15.382Z,0.00
2018-11-27T03:16:15.345Z,0.00
2018-11-27T03:17:15.356Z,0.00
2018-11-27T03:18:15.355Z,0.00
2018-11-27T03:19:15.341Z,0.00
2018-11-27T03:20:15.318Z,0.00
2018-11-27T03:21:15.294Z,0.00
2018-11-27T03:22:15.285Z,0.00
2018-11-27T03:23:15.295Z,0.00
2018-11-27T03:24:15.264Z,0.00
2018-11-27T03:25:15.250Z,0.00
2018-11-27T03:26:15.271Z,0.00
2018-11-27T03:27:15.230Z,0.00
2018-11-27T03:28:15.241Z,0.00
2018-11-27T03:29:15.203Z,0.00
2018-11-27T03:31:32.095Z,0.00
2018-11-27T03:32:31.551Z,0.00
2018-11-27T03:33:31.531Z,0.00
2018-11-27T03:34:31.525Z,0.00
2018-11-27T03:35:31.513Z,0.00
2018-11-27T03:36:31.500Z,0.00
2018-11-27T03:37:31.544Z,0.00
2018-11-27T03:38:31.499Z,0.00
2018-11-27T03:39:31.474Z,0.00
2018-11-27T03:40:31.505Z,0.00
2018-11-27T03:41:31.475Z,0.00
2018-11-27T03:42:31.440Z,0.00
2018-11-27T03:43:31.425Z,0.00
2018-11-27T03:44:31.443Z,0.00
2018-11-27T03:45:31.432Z,0.00
2018-11-27T03:46:31.402Z,0.00
2018-11-27T03:47:31.398Z,0.00
2018-11-27T03:48:31.369Z,0.00
2018-11-27T03:49:31.363Z,0.00
2018-11-27T03:50:31.382Z,0.00
2018-11-27T03:51:31.372Z,0.00
2018-11-27T03:52:31.328Z,0.00
2018-11-27T03:53:31.318Z,0.00
2018-11-27T03:54:31.346Z,0.00
2018-11-27T03:55:31.296Z,0.00
2018-11-27T03:56:31.281Z,0.00
2018-11-27T03:57:31.276Z,0.00
2018-11-27T03:58:31.264Z,0.00
2018-11-27T03:59:31.251Z,0.00
2018-11-27T04:00:31.290Z,0.00
2018-11-27T04:01:31.232Z,0.00
2018-11-27T04:02:31.224Z,0.00
2018-11-27T04:03:31.216Z,0.00
2018-11-27T04:04:31.206Z,0.00
2018-11-27T04:05:31.215Z,0.00
2018-11-27T04:06:31.193Z,0.00
2018-11-27T04:07:31.167Z,0.00
2018-11-27T04:08:31.155Z,0.00
2018-11-27T04:09:31.155Z,0.00
2018-11-27T04:10:31.156Z,0.00
2018-11-27T04:11:31.122Z,0.00
2018-11-27T04:12:31.112Z,0.00
2018-11-27T04:13:31.102Z,0.00
2018-11-27T04:14:31.096Z,0.00
2018-11-27T04:15:31.382Z,0.00
2018-11-27T04:16:31.096Z,0.00
2018-11-27T04:17:31.058Z,0.00
2018-11-27T04:18:31.051Z,0.00
2018-11-27T04:19:31.035Z,0.00
2018-11-27T04:20:32.340Z,0.00
2018-11-27T04:21:31.046Z,0.00
2018-11-27T04:22:31.003Z,0.00
2018-11-27T04:23:30.997Z,0.00
2018-11-27T04:24:30.990Z,0.00
2018-11-27T04:25:30.998Z,0.00
2018-11-27T04:26:31.100Z,0.00
2018-11-27T04:27:30.967Z,0.00
2018-11-27T04:28:30.941Z,0.00
2018-11-27T04:29:30.944Z,0.00
2018-11-27T04:30:30.940Z,0.00
2018-11-27T04:31:30.917Z,0.00
2018-11-27T04:32:30.916Z,0.00
2018-11-27T04:33:30.906Z,0.00
2018-11-27T04:34:30.878Z,0.00
2018-11-27T04:35:30.862Z,0.00
2018-11-27T04:36:31.106Z,0.00
2018-11-27T04:37:30.850Z,0.00
2018-11-27T04:38:30.934Z,0.00
2018-11-27T04:39:30.884Z,0.00
2018-11-27T04:40:30.822Z,0.00
2018-11-27T04:41:30.798Z,0.00
2018-11-27T04:42:30.823Z,0.00
2018-11-27T04:43:30.799Z,0.00
2018-11-27T04:44:30.769Z,0.00
2018-11-27T04:45:30.793Z,0.00
2018-11-27T04:46:30.776Z,0.00
2018-11-27T04:47:30.737Z,0.00
2018-11-27T04:48:30.731Z,0.00
2018-11-27T04:49:30.712Z,0.00
2018-11-27T04:50:30.714Z,0.00
2018-11-27T04:51:30.703Z,0.00
2018-11-27T04:52:30.726Z,0.00
2018-11-27T04:53:30.696Z,0.00
2018-11-27T04:54:30.662Z,0.00
2018-11-27T04:55:30.651Z,0.00
2018-11-27T04:56:30.660Z,0.00
2018-11-27T04:57:30.635Z,0.00
2018-11-27T04:58:30.648Z,0.00
2018-11-27T04:59:30.616Z,0.00
2018-11-27T05:00:30.593Z,0.00
2018-11-27T05:01:30.598Z,0.00
2018-11-27T05:02:30.601Z,0.00
2018-11-27T05:03:30.585Z,0.00
2018-11-27T05:04:30.559Z,0.00
2018-11-27T05:05:30.539Z,0.00
2018-11-27T05:06:30.583Z,0.00
2018-11-27T05:07:30.526Z,0.00
2018-11-27T05:08:30.530Z,0.00
2018-11-27T05:09:30.497Z,0.00
2018-11-27T05:10:30.486Z,0.00
2018-11-27T05:11:30.494Z,0.00
2018-11-27T05:12:30.489Z,0.00
2018-11-27T05:13:30.481Z,0.00
2018-11-27T05:14:30.450Z,0.00
2018-11-27T05:15:30.431Z,0.00
2018-11-27T05:16:30.432Z,0.00
2018-11-27T05:17:30.433Z,0.00
2018-11-27T05:18:30.402Z,0.00
2018-11-27T05:19:30.422Z,0.00
2018-11-27T05:20:30.379Z,0.00
2018-11-27T05:21:30.366Z,0.00
2018-11-27T05:22:30.379Z,0.00
2018-11-27T05:23:30.596Z,0.00
2018-11-27T05:24:30.338Z,0.00
2018-11-27T05:25:30.347Z,0.00
2018-11-27T05:26:30.371Z,0.00
2018-11-27T05:27:30.324Z,0.00
2018-11-27T05:28:30.333Z,0.00
2018-11-27T05:29:30.280Z,0.00
2018-11-27T05:30:30.337Z,0.00
2018-11-27T05:31:30.276Z,0.00
2018-11-27T05:32:30.248Z,0.00
2018-11-27T05:33:30.237Z,0.00
2018-11-27T05:34:30.506Z,0.00
2018-11-27T05:35:30.221Z,0.00
2018-11-27T05:36:30.208Z,0.00
2018-11-27T05:37:30.194Z,0.00
2018-11-27T05:38:30.195Z,0.00
2018-11-27T05:39:30.182Z,0.00
2018-11-27T05:40:30.200Z,0.00
2018-11-27T05:41:30.170Z,0.00
2018-11-27T05:42:30.195Z,0.00
2018-11-27T05:43:30.173Z,0.00
2018-11-27T05:44:30.120Z,0.00
2018-11-27T05:45:30.140Z,0.00
2018-11-27T05:46:30.111Z,0.00
2018-11-27T05:47:30.106Z,0.00
2018-11-27T05:48:30.108Z,0.00
2018-11-27T05:49:30.063Z,0.00
2018-11-27T05:50:30.104Z,0.00
2018-11-27T05:51:30.059Z,0.00
2018-11-27T05:52:30.052Z,0.00
2018-11-27T05:53:30.021Z,0.00
2018-11-27T05:54:30.046Z,0.00
2018-11-27T05:55:30.042Z,0.00
2018-11-27T05:56:30.001Z,0.00
2018-11-27T05:57:29.978Z,0.00
2018-11-27T05:58:29.973Z,0.00
2018-11-27T05:59:29.963Z,0.00
2018-11-27T06:00:30.002Z,0.00
2018-11-27T06:01:29.931Z,0.00
2018-11-27T06:02:29.930Z,0.00
2018-11-27T06:03:29.921Z,0.00
2018-11-27T06:04:29.913Z,0.00
2018-11-27T06:05:29.930Z,0.00
2018-11-27T06:06:29.889Z,0.00
2018-11-27T06:07:29.899Z,0.00
2018-11-27T06:08:29.884Z,0.00
2018-11-27T06:09:29.858Z,0.00
2018-11-27T06:10:29.862Z,0.00
2018-11-27T06:11:29.836Z,0.00
2018-11-27T06:12:29.815Z,0.00
2018-11-27T06:13:29.807Z,0.00
2018-11-27T06:14:29.798Z,0.00
2018-11-27T06:15:29.801Z,0.00
2018-11-27T06:16:29.770Z,0.00
2018-11-27T06:17:29.785Z,0.00
2018-11-27T06:18:29.752Z,0.00
2018-11-27T06:19:29.744Z,0.00
2018-11-27T06:20:29.757Z,0.00
2018-11-27T06:21:29.720Z,0.00
2018-11-27T06:22:29.728Z,0.00
2018-11-27T06:23:29.696Z,0.00
2018-11-27T06:24:29.686Z,0.00
2018-11-27T06:25:29.955Z,0.00
2018-11-27T06:26:29.675Z,0.00
2018-11-27T06:27:29.656Z,0.00
2018-11-27T06:28:29.648Z,0.00
2018-11-27T06:29:29.631Z,0.00
2018-11-27T06:30:29.623Z,0.00
2018-11-27T06:31:29.633Z,0.00
2018-11-27T06:32:29.621Z,0.00
2018-11-27T06:33:29.615Z,0.00
2018-11-27T06:34:29.588Z,0.00
2018-11-27T06:35:29.575Z,0.00
2018-11-27T06:36:29.562Z,0.00
2018-11-27T06:37:29.546Z,0.00
2018-11-27T06:38:29.569Z,0.00
2018-11-27T06:39:29.527Z,0.00
2018-11-27T06:40:29.524Z,0.00
2018-11-27T06:41:29.504Z,0.00
2018-11-27T06:42:29.493Z,0.00
2018-11-27T06:43:29.500Z,0.00
2018-11-27T06:44:29.490Z,0.00
2018-11-27T06:45:29.481Z,0.00
2018-11-27T06:46:29.485Z,0.00
2018-11-27T06:47:29.444Z,0.00
2018-11-27T06:48:29.439Z,0.00
2018-11-27T06:49:29.416Z,0.00
2018-11-27T06:50:29.409Z,0.00
2018-11-27T06:51:29.395Z,4.00
2018-11-27T06:52:29.415Z,4.00
2018-11-27T06:53:29.384Z,4.00
2018-11-27T06:54:29.366Z,0.00
2018-11-27T06:55:29.351Z,0.00
2018-11-27T06:56:29.337Z,0.00
2018-11-27T06:57:29.336Z,4.00
2018-11-27T06:58:29.559Z,4.00
2018-11-27T06:59:29.311Z,4.00
2018-11-27T07:00:29.294Z,4.00
2018-11-27T07:01:29.293Z,4.00
2018-11-27T07:02:29.285Z,4.00
2018-11-27T07:03:31.031Z,4.00
2018-11-27T07:04:29.258Z,4.00
2018-11-27T07:05:29.242Z,8.00
2018-11-27T07:06:29.236Z,8.00
2018-11-27T07:07:29.226Z,8.00
2018-11-27T07:08:29.229Z,8.00
2018-11-27T07:09:29.227Z,8.00
2018-11-27T07:10:29.193Z,8.00
2018-11-27T07:11:29.203Z,8.00
2018-11-27T07:12:29.201Z,12.00
2018-11-27T07:13:29.249Z,8.00
2018-11-27T07:14:29.184Z,12.00
2018-11-27T07:15:29.137Z,8.00
2018-11-27T07:16:29.121Z,12.00
2018-11-27T07:17:29.156Z,12.00
2018-11-27T07:18:29.144Z,16.00
2018-11-27T07:19:29.101Z,12.00
2018-11-27T07:20:29.082Z,16.00
2018-11-27T07:21:29.075Z,16.00
2018-11-27T07:22:29.065Z,20.00
2018-11-27T07:23:29.068Z,16.00
2018-11-27T07:24:29.038Z,16.00
2018-11-27T07:25:29.048Z,20.00
2018-11-27T07:26:29.021Z,20.00
2018-11-27T07:27:29.050Z,20.00
2018-11-27T07:28:29.044Z,24.00
2018-11-27T07:29:29.007Z,24.00
2018-11-27T07:30:29.012Z,28.00
2018-11-27T07:31:28.958Z,28.00
2018-11-27T07:32:28.946Z,28.00
2018-11-27T07:33:28.950Z,28.00
2018-11-27T07:34:28.949Z,32.00
2018-11-27T07:35:28.914Z,32.00
2018-11-27T07:36:28.909Z,36.00
2018-11-27T07:37:28.898Z,40.00
2018-11-27T07:38:28.892Z,44.00
2018-11-27T07:39:28.903Z,44.00
2018-11-27T07:40:28.879Z,44.00
2018-11-27T07:41:28.865Z,48.00
2018-11-27T07:42:28.845Z,48.00
2018-11-27T07:43:28.859Z,48.00
2018-11-27T07:44:28.825Z,52.00
2018-11-27T07:45:28.832Z,56.00
2018-11-27T07:46:28.795Z,56.00
2018-11-27T07:47:28.826Z,60.00
2018-11-27T07:48:28.784Z,60.00
2018-11-27T07:49:28.787Z,64.00
2018-11-27T07:50:28.762Z,68.00
2018-11-27T07:51:28.749Z,72.00
2018-11-27T07:52:28.732Z,72.00
2018-11-27T07:53:28.760Z,80.00
2018-11-27T07:54:28.719Z,84.00
2018-11-27T07:55:28.708Z,92.00
2018-11-27T07:56:28.687Z,96.00
2018-11-27T07:57:28.677Z,96.00
2018-11-27T07:58:28.694Z,100.00
2018-11-27T07:59:28.678Z,100.00
2018-11-27T08:00:28.648Z,104.00
2018-11-27T08:01:28.653Z,108.00
2018-11-27T08:02:28.624Z,108.00
2018-11-27T08:03:28.622Z,112.00
2018-11-27T08:04:28.640Z,112.00
2018-11-27T08:05:28.600Z,112.00
2018-11-27T08:06:28.584Z,116.00
2018-11-27T08:07:28.571Z,116.00
2018-11-27T08:08:28.590Z,120.00
2018-11-27T08:09:28.567Z,124.00
2018-11-27T08:10:28.552Z,124.00
2018-11-27T08:11:28.526Z,124.00
2018-11-27T08:12:28.525Z,128.00
2018-11-27T08:13:28.520Z,128.00
2018-11-27T08:14:28.520Z,136.00
2018-11-27T08:15:28.487Z,144.00
2018-11-27T08:16:28.472Z,156.00
2018-11-27T08:17:28.463Z,160.00
2018-11-27T08:18:28.466Z,168.00
2018-11-27T08:19:28.440Z,172.00
2018-11-27T08:20:28.452Z,176.00
2018-11-27T08:21:28.424Z,180.00
2018-11-27T08:22:28.422Z,188.00
2018-11-27T08:23:28.397Z,200.00
2018-11-27T08:24:28.394Z,208.00
2018-11-27T08:25:28.410Z,212.00
2018-11-27T08:26:28.363Z,216.00
2018-11-27T08:27:28.353Z,224.00
2018-11-27T08:28:28.349Z,228.00
2018-11-27T08:29:28.337Z,232.00
2018-11-27T08:30:28.347Z,232.00
2018-11-27T08:31:28.321Z,228.00
2018-11-27T08:32:28.304Z,228.00
2018-11-27T08:33:28.286Z,228.00
2018-11-27T08:34:28.301Z,232.00
2018-11-27T08:35:28.315Z,240.00
2018-11-27T08:36:28.265Z,244.00
2018-11-27T08:37:28.272Z,248.00
2018-11-27T08:38:28.237Z,260.00
2018-11-27T08:39:28.228Z,268.00
2018-11-27T08:40:28.273Z,284.00
2018-11-27T08:41:28.204Z,296.00
2018-11-27T08:42:28.190Z,304.00
2018-11-27T08:43:28.231Z,312.00
2018-11-27T08:44:28.172Z,316.00
2018-11-27T08:45:28.159Z,316.00
2018-11-27T08:46:28.146Z,312.00
2018-11-27T08:47:28.145Z,308.00
2018-11-27T08:48:28.149Z,304.00
2018-11-27T08:49:28.118Z,308.00
2018-11-27T08:50:28.123Z,312.00
2018-11-27T08:51:28.125Z,320.00
2018-11-27T08:52:28.087Z,320.00
2018-11-27T08:53:28.074Z,320.00
2018-11-27T08:54:28.067Z,308.00
2018-11-27T08:55:28.052Z,296.00
2018-11-27T08:56:28.065Z,284.00
2018-11-27T08:57:28.032Z,280.00
2018-11-27T08:58:28.019Z,280.00
2018-11-27T08:59:28.011Z,280.00
2018-11-27T09:00:27.998Z,276.00
2018-11-27T09:01:28.292Z,276.00
2018-11-27T09:02:27.980Z,284.00
2018-11-27T09:03:27.962Z,300.00
2018-11-27T09:04:27.964Z,312.00
2018-11-27T09:05:27.944Z,324.00
2018-11-27T09:06:27.929Z,332.00
2018-11-27T09:07:27.960Z,344.00
2018-11-27T09:08:27.911Z,364.00
2018-11-27T09:09:27.906Z,380.00
2018-11-27T09:10:27.894Z,400.00
2018-11-27T09:11:27.875Z,408.00
2018-11-27T09:12:27.866Z,412.00
2018-11-27T09:13:27.989Z,412.00
2018-11-27T09:14:27.844Z,416.00
2018-11-27T09:15:27.832Z,420.00
2018-11-27T09:16:27.834Z,420.00
2018-11-27T09:17:27.836Z,424.00
2018-11-27T09:18:27.815Z,428.00
2018-11-27T09:19:27.846Z,432.00
2018-11-27T09:20:27.778Z,432.00
2018-11-27T09:21:27.773Z,424.00
2018-11-27T09:22:27.767Z,416.00
2018-11-27T09:23:27.775Z,416.00
2018-11-27T09:24:27.782Z,416.00
2018-11-27T09:25:27.724Z,424.00
2018-11-27T09:26:27.715Z,432.00
2018-11-27T09:27:27.740Z,444.00
2018-11-27T09:28:27.691Z,456.00
2018-11-27T09:29:27.683Z,468.00
2018-11-27T09:30:27.671Z,488.00
2018-11-27T09:31:27.671Z,500.00
2018-11-27T09:32:27.648Z,512.00
2018-11-27T09:33:27.673Z,512.00
2018-11-27T09:34:28.521Z,516.00
2018-11-27T09:35:27.618Z,516.00
2018-11-27T09:36:27.609Z,528.00
2018-11-27T09:37:27.594Z,548.00
2018-11-27T09:38:27.610Z,564.00
2018-11-27T09:39:27.573Z,572.00
2018-11-27T09:40:27.558Z,572.00
2018-11-27T09:41:27.565Z,568.00
2018-11-27T09:42:27.564Z,568.00
2018-11-27T09:43:27.559Z,576.00
2018-11-27T09:44:27.518Z,584.00
2018-11-27T09:45:27.514Z,588.00
2018-11-27T09:46:27.505Z,580.00
2018-11-27T09:47:27.489Z,568.00
2018-11-27T09:48:27.505Z,564.00
2018-11-27T09:49:27.468Z,568.00
2018-11-27T09:50:27.455Z,568.00
2018-11-27T09:51:27.446Z,572.00
2018-11-27T09:52:27.432Z,580.00
2018-11-27T09:53:27.463Z,588.00
2018-11-27T09:54:27.416Z,576.00
2018-11-27T09:55:27.527Z,568.00
2018-11-27T09:56:27.389Z,568.00
2018-11-27T09:57:27.388Z,572.00
2018-11-27T09:58:27.411Z,588.00
2018-11-27T09:59:27.362Z,596.00
2018-11-27T10:00:27.347Z,596.00
2018-11-27T10:01:27.357Z,588.00
2018-11-27T10:02:27.328Z,580.00
2018-11-27T10:03:27.321Z,580.00
2018-11-27T10:04:27.336Z,588.00
2018-11-27T10:05:27.323Z,596.00
2018-11-27T10:06:27.286Z,604.00
2018-11-27T10:07:27.881Z,612.00
2018-11-27T10:08:27.265Z,612.00
2018-11-27T10:09:27.281Z,616.00
2018-11-27T10:10:27.249Z,616.00
2018-11-27T10:11:27.225Z,620.00
2018-11-27T10:12:27.242Z,620.00
2018-11-27T10:13:27.220Z,620.00
2018-11-27T10:14:27.215Z,608.00
2018-11-27T10:15:27.191Z,588.00
2018-11-27T10:16:27.171Z,576.00
2018-11-27T10:17:27.164Z,576.00
2018-11-27T10:18:27.174Z,576.00
2018-11-27T10:19:28.252Z,572.00
2018-11-27T10:20:27.131Z,576.00
2018-11-27T10:21:27.147Z,588.00
2018-11-27T10:22:27.110Z,604.00
2018-11-27T10:23:27.099Z,612.00
2018-11-27T10:24:27.091Z,608.00
2018-11-27T10:25:27.360Z,588.00
2018-11-27T10:26:27.073Z,580.00
2018-11-27T10:27:27.070Z,584.00
2018-11-27T10:28:31.836Z,596.00
2018-11-27T10:29:28.030Z,600.00
2018-11-27T10:30:27.028Z,600.00
2018-11-27T10:31:27.037Z,604.00
2018-11-27T10:32:26.998Z,600.00
2018-11-27T10:33:27.007Z,588.00
2018-11-27T10:34:26.985Z,568.00
2018-11-27T10:35:26.972Z,564.00
2018-11-27T10:36:26.983Z,580.00
2018-11-27T10:37:26.951Z,608.00
2018-11-27T10:38:26.960Z,632.00
2018-11-27T10:39:26.938Z,636.00
2018-11-27T10:40:26.920Z,640.00
2018-11-27T10:41:26.923Z,624.00
2018-11-27T10:42:30.123Z,600.00
2018-11-27T10:43:26.883Z,564.00
2018-11-27T10:44:26.886Z,536.00
2018-11-27T10:45:26.862Z,496.00
2018-11-27T10:46:26.885Z,452.00
2018-11-27T10:47:26.835Z,452.00
2018-11-27T10:48:26.829Z,448.00
2018-11-27T10:49:26.818Z,448.00
2018-11-27T10:50:26.806Z,472.00
2018-11-27T10:51:26.823Z,512.00
2018-11-27T10:52:26.832Z,564.00
2018-11-27T10:53:26.772Z,588.00
2018-11-27T10:54:26.760Z,584.00
2018-11-27T10:55:26.762Z,588.00
2018-11-27T10:56:26.947Z,600.00
2018-11-27T10:57:26.731Z,588.00
2018-11-27T10:58:26.765Z,564.00
2018-11-27T10:59:26.709Z,532.00
2018-11-27T11:00:26.696Z,508.00
2018-11-27T11:01:26.683Z,516.00
2018-11-27T11:02:26.681Z,532.00
2018-11-27T11:03:26.682Z,544.00
2018-11-27T11:04:26.654Z,560.00
2018-11-27T11:05:27.739Z,560.00
2018-11-27T11:06:26.631Z,568.00
2018-11-27T11:07:26.626Z,580.00
2018-11-27T11:08:26.635Z,600.00
2018-11-27T11:09:26.597Z,616.00
2018-11-27T11:10:26.587Z,612.00
2018-11-27T11:11:26.589Z,596.00
2018-11-27T11:12:26.572Z,584.00
2018-11-27T11:13:26.588Z,572.00
2018-11-27T11:14:26.552Z,568.00
2018-11-27T11:15:26.558Z,552.00
2018-11-27T11:16:26.524Z,532.00
2018-11-27T11:17:26.513Z,524.00
2018-11-27T11:18:26.500Z,532.00
2018-11-27T11:19:26.489Z,536.00
2018-11-27T11:20:26.479Z,548.00
2018-11-27T11:21:26.512Z,560.00
2018-11-27T11:22:26.459Z,564.00
2018-11-27T11:23:26.468Z,576.00
2018-11-27T11:24:26.439Z,588.00
2018-11-27T11:25:26.426Z,612.00
2018-11-27T11:26:26.410Z,632.00
2018-11-27T11:27:26.431Z,644.00
2018-11-27T11:28:26.393Z,632.00
2018-11-27T11:29:26.379Z,644.00
2018-11-27T11:30:26.369Z,660.00
2018-11-27T11:31:26.382Z,644.00
2018-11-27T11:32:26.354Z,640.00
2018-11-27T11:33:26.341Z,644.00
2018-11-27T11:34:26.357Z,656.00
2018-11-27T11:35:26.338Z,668.00
2018-11-27T11:36:26.304Z,708.00
2018-11-27T11:37:26.296Z,760.00
2018-11-27T11:38:26.288Z,748.00
2018-11-27T11:39:26.282Z,728.00
2018-11-27T11:40:26.313Z,780.00
2018-11-27T11:41:31.179Z,824.00
2018-11-27T11:42:27.247Z,860.00
2018-11-27T11:43:26.228Z,892.00
2018-11-27T11:44:26.243Z,920.00
2018-11-27T11:45:26.251Z,956.00
2018-11-27T11:46:26.193Z,964.00
2018-11-27T11:47:26.212Z,948.00
2018-11-27T11:48:26.180Z,928.00
2018-11-27T11:49:26.169Z,896.00
2018-11-27T11:50:26.167Z,860.00
2018-11-27T11:51:26.141Z,864.00
2018-11-27T11:52:26.152Z,900.00
2018-11-27T11:53:26.125Z,944.00
2018-11-27T11:54:26.138Z,960.00
2018-11-27T11:55:26.117Z,940.00
2018-11-27T11:56:26.092Z,952.00
2018-11-27T11:57:26.079Z,972.00
2018-11-27T11:58:26.118Z,972.00
2018-11-27T11:59:28.778Z,960.00
2018-11-27T12:00:26.073Z,956.00
2018-11-27T12:01:26.034Z,916.00
2018-11-27T12:02:26.893Z,896.00
2018-11-27T12:03:26.049Z,908.00
2018-11-27T12:04:26.028Z,924.00
2018-11-27T12:05:26.017Z,940.00
2018-11-27T12:06:25.987Z,932.00
2018-11-27T12:07:25.974Z,912.00
2018-11-27T12:08:25.957Z,880.00
2018-11-27T12:09:25.944Z,844.00
2018-11-27T12:10:25.991Z,816.00
2018-11-27T12:11:25.927Z,788.00
2018-11-27T12:12:25.918Z,752.00
2018-11-27T12:13:25.901Z,748.00
2018-11-27T12:14:25.896Z,756.00
2018-11-27T12:15:25.888Z,756.00
2018-11-27T12:16:25.894Z,740.00
2018-11-27T12:17:25.861Z,732.00
2018-11-27T12:18:25.854Z,720.00
2018-11-27T12:19:25.833Z,692.00
2018-11-27T12:20:25.824Z,632.00
2018-11-27T12:21:25.845Z,588.00
2018-11-27T12:22:25.804Z,568.00
2018-11-27T12:23:25.795Z,572.00
2018-11-27T12:24:25.791Z,580.00
2018-11-27T12:25:25.770Z,576.00
2018-11-27T12:26:25.781Z,568.00
2018-11-27T12:27:25.773Z,568.00
2018-11-27T12:28:25.743Z,556.00
2018-11-27T12:29:25.726Z,540.00
2018-11-27T12:30:25.719Z,512.00
2018-11-27T12:31:25.731Z,500.00
2018-11-27T12:32:25.718Z,496.00
2018-11-27T12:33:25.691Z,512.00
2018-11-27T12:34:25.679Z,528.00
2018-11-27T12:35:25.662Z,536.00
2018-11-27T12:36:25.673Z,540.00
2018-11-27T12:37:25.649Z,556.00
2018-11-27T12:38:25.631Z,568.00
2018-11-27T12:39:25.627Z,564.00
2018-11-27T12:40:25.612Z,576.00
2018-11-27T12:41:25.623Z,592.00
2018-11-27T12:42:25.589Z,604.00
2018-11-27T12:43:25.576Z,604.00
2018-11-27T12:44:25.583Z,596.00
2018-11-27T12:45:25.556Z,580.00
2018-11-27T12:46:25.577Z,556.00
2018-11-27T12:47:25.532Z,540.00
2018-11-27T12:48:25.520Z,528.00
2018-11-27T12:49:25.509Z,516.00
2018-11-27T12:50:25.516Z,508.00
2018-11-27T12:51:25.485Z,512.00
2018-11-27T12:52:25.501Z,504.00
2018-11-27T12:53:25.493Z,492.00
2018-11-27T12:54:25.457Z,464.00
2018-11-27T12:55:25.446Z,448.00
2018-11-27T12:56:25.439Z,432.00
2018-11-27T12:57:25.463Z,428.00